Wetterdaten: Woche 22.02.21 - 28.02.21 (KW8)
Datum Zeit Temp. A. Feuchte A. Luftdruck Regen Wind Richtung Taupunkt Windchill Windben
22.02.2021 00:00 4,9 C 83 % 1022,9 hPa 0,0 l/m 3,1 km/h N 2,2 C 4,9 C 8,0 km/h
22.02.2021 01:00 4,7 C 83 % 1022,8 hPa 0,0 l/m 0,3 km/h N 2,0 C 4,7 C 2,8 km/h
22.02.2021 02:00 4,6 C 82 % 1022,8 hPa 0,0 l/m 0,8 km/h N 1,8 C 4,6 C 6,8 km/h
22.02.2021 03:00 4,5 C 82 % 1022,9 hPa 0,0 l/m 0,3 km/h N 1,7 C 4,5 C 4,4 km/h
22.02.2021 04:00 4,3 C 82 % 1023,1 hPa 0,0 l/m 1,0 km/h N 1,5 C 4,3 C 4,8 km/h
22.02.2021 05:00 4,2 C 82 % 1023,6 hPa 0,0 l/m 0,0 km/h N 1,4 C 4,2 C 0,0 km/h
22.02.2021 06:00 4,0 C 82 % 1023,8 hPa 0,0 l/m 0,0 km/h N 1,2 C 4,0 C 0,0 km/h
22.02.2021 07:00 3,9 C 82 % 1024,4 hPa 0,0 l/m 0,0 km/h N 1,1 C 3,9 C 0,0 km/h
22.02.2021 08:00 4,0 C 82 % 1024,9 hPa 0,0 l/m 0,0 km/h N 1,2 C 4,0 C 0,0 km/h
22.02.2021 09:00 4,4 C 82 % 1025,3 hPa 0,0 l/m 0,0 km/h N 1,6 C 4,4 C 0,0 km/h
22.02.2021 10:00 4,4 C 82 % 1025,8 hPa 0,0 l/m 0,1 km/h N 1,7 C 4,4 C 1,6 km/h
22.02.2021 11:00 5,1 C 82 % 1026,2 hPa 0,0 l/m 0,0 km/h N 2,3 C 5,1 C 0,8 km/h
22.02.2021 12:00 5,8 C 82 % 1026,4 hPa 0,0 l/m 0,0 km/h N 3,0 C 5,8 C 0,0 km/h
22.02.2021 13:00 6,2 C 81 % 1026,6 hPa 0,0 l/m 0,0 km/h N 3,2 C 6,2 C 0,4 km/h
22.02.2021 14:00 6,6 C 82 % 1026,7 hPa 0,0 l/m 0,0 km/h N 3,7 C 6,6 C 0,0 km/h
22.02.2021 15:00 6,8 C 82 % 1026,9 hPa 0,0 l/m 0,0 km/h N 4,0 C 6,8 C 0,0 km/h
22.02.2021 16:00 6,4 C 82 % 1027,0 hPa 0,0 l/m 0,0 km/h N 3,5 C 6,4 C 0,4 km/h
22.02.2021 17:00 5,1 C 82 % 1027,2 hPa 0,0 l/m 0,0 km/h N 2,3 C 5,1 C 0,0 km/h
22.02.2021 18:00 2,8 C 82 % 1028,0 hPa 0,0 l/m 0,0 km/h N 0,1 C 2,8 C 0,0 km/h
22.02.2021 19:00 1,6 C 83 % 1028,2 hPa 0,0 l/m 0,0 km/h N -0,9 C 1,6 C 0,0 km/h
22.02.2021 20:00 0,6 C 83 % 1028,7 hPa 0,0 l/m 0,0 km/h N -2,0 C 0,6 C 0,0 km/h
22.02.2021 21:00 0,0 C 83 % 1029,0 hPa 0,0 l/m 0,0 km/h N -2,5 C 0,0 C 0,0 km/h
22.02.2021 22:00 -0,3 C 82 % 1029,5 hPa 0,0 l/m 0,0 km/h N -3,0 C -0,3 C 0,0 km/h
22.02.2021 23:00 -0,6 C 82 % 1029,9 hPa 0,0 l/m 0,0 km/h N -3,3 C -0,6 C 0,0 km/h
23.02.2021 00:00 -0,8 C 82 % 1030,7 hPa 0,0 l/m 0,0 km/h N -3,4 C -0,8 C 0,0 km/h
23.02.2021 01:00 -0,9 C 82 % 1031,2 hPa 0,0 l/m 0,0 km/h N -3,6 C -0,9 C 0,0 km/h
23.02.2021 02:00 -1,5 C 82 % 1031,7 hPa 0,0 l/m 0,0 km/h N -4,1 C -1,5 C 0,0 km/h
23.02.2021 03:00 -0,8 C 82 % 1032,0 hPa 0,0 l/m 0,0 km/h N -3,4 C -0,8 C 0,0 km/h
23.02.2021 04:00 0,3 C 82 % 1032,3 hPa 0,0 l/m 0,0 km/h N -2,4 C 0,3 C 0,0 km/h
23.02.2021 05:00 0,5 C 83 % 1033,0 hPa 0,0 l/m 0,0 km/h N -2,0 C 0,5 C 0,0 km/h
23.02.2021 06:00 0,6 C 83 % 1033,4 hPa 0,3 l/m 0,0 km/h N -2,0 C 0,6 C 0,0 km/h
23.02.2021 07:00 0,6 C 83 % 1034,1 hPa 0,0 l/m 0,0 km/h N -2,0 C 0,6 C 0,0 km/h
23.02.2021 08:00 1,3 C 83 % 1034,8 hPa 0,0 l/m 0,0 km/h N -1,3 C 1,3 C 0,0 km/h
23.02.2021 09:00 2,2 C 83 % 1035,3 hPa 0,0 l/m 0,1 km/h N -0,4 C 2,2 C 1,6 km/h
23.02.2021 10:00 3,6 C 84 % 1035,6 hPa 0,0 l/m 0,0 km/h N 1,1 C 3,6 C 0,4 km/h
23.02.2021 11:00 5,1 C 84 % 1035,6 hPa 0,0 l/m 0,0 km/h N 2,6 C 5,1 C 0,8 km/h
23.02.2021 12:00 7,2 C 84 % 1035,1 hPa 0,0 l/m 0,0 km/h N 4,7 C 7,2 C 0,4 km/h
23.02.2021 13:00 9,9 C 84 % 1034,6 hPa 0,0 l/m 0,0 km/h N 7,3 C 9,9 C 1,6 km/h
23.02.2021 14:00 12,1 C 81 % 1034,6 hPa 0,0 l/m 0,1 km/h N 8,9 C 12,1 C 2,8 km/h
23.02.2021 15:00 13,8 C 76 % 1034,4 hPa 0,0 l/m 0,0 km/h N 9,6 C 13,8 C 0,0 km/h
23.02.2021 16:00 12,8 C 74 % 1035,0 hPa 0,0 l/m 0,0 km/h N 8,3 C 12,8 C 0,4 km/h
23.02.2021 17:00 10,0 C 77 % 1035,7 hPa 0,0 l/m 0,0 km/h N 6,1 C 10,0 C 0,0 km/h
23.02.2021 18:00 7,3 C 79 % 1036,4 hPa 0,0 l/m 0,0 km/h N 3,9 C 7,3 C 0,0 km/h
23.02.2021 19:00 5,1 C 81 % 1036,7 hPa 0,0 l/m 0,0 km/h N 2,1 C 5,1 C 0,0 km/h
23.02.2021 20:00 3,8 C 81 % 1036,8 hPa 0,0 l/m 0,0 km/h N 0,9 C 3,8 C 0,0 km/h
23.02.2021 21:00 2,8 C 82 % 1036,9 hPa 0,0 l/m 0,0 km/h N 0,1 C 2,8 C 0,0 km/h
23.02.2021 22:00 2,2 C 82 % 1037,3 hPa 0,0 l/m 0,0 km/h N -0,5 C 2,2 C 0,0 km/h
23.02.2021 23:00 2,0 C 82 % 1037,3 hPa 0,0 l/m 0,0 km/h N -0,8 C 2,0 C 0,0 km/h
24.02.2021 00:00 1,3 C 82 % 1037,1 hPa 0,0 l/m 0,0 km/h N -1,4 C 1,3 C 0,0 km/h
24.02.2021 01:00 1,1 C 82 % 1036,9 hPa 0,0 l/m 0,0 km/h N -1,6 C 1,1 C 0,0 km/h
24.02.2021 02:00 0,6 C 82 % 1036,6 hPa 0,0 l/m 0,0 km/h N -2,1 C 0,6 C 0,0 km/h
24.02.2021 03:00 0,2 C 82 % 1036,3 hPa 0,0 l/m 0,0 km/h N -2,5 C 0,2 C 0,0 km/h
24.02.2021 04:00 -0,1 C 82 % 1036,6 hPa 0,0 l/m 0,0 km/h N -2,8 C -0,1 C 0,0 km/h
24.02.2021 05:00 -0,4 C 82 % 1037,0 hPa 0,0 l/m 0,0 km/h N -3,1 C -0,4 C 0,0 km/h
24.02.2021 06:00 -0,5 C 82 % 1037,1 hPa 0,0 l/m 0,0 km/h N -3,2 C -0,5 C 0,0 km/h
24.02.2021 07:00 -0,5 C 82 % 1037,4 hPa 0,0 l/m 0,0 km/h N -3,2 C -0,5 C 0,0 km/h
24.02.2021 08:00 0,9 C 83 % 1037,5 hPa 0,3 l/m 0,0 km/h N -1,7 C 0,9 C 0,0 km/h
24.02.2021 09:00 4,1 C 83 % 1037,4 hPa 0,0 l/m 0,0 km/h N 1,5 C 4,1 C 0,0 km/h
24.02.2021 10:00 6,4 C 83 % 1037,0 hPa 0,0 l/m 0,0 km/h N 3,8 C 6,4 C 0,0 km/h
24.02.2021 11:00 8,1 C 83 % 1036,9 hPa 0,0 l/m 0,2 km/h N 5,4 C 8,1 C 3,2 km/h
24.02.2021 12:00 10,1 C 81 % 1036,4 hPa 0,0 l/m 0,3 km/h N 7,1 C 10,1 C 4,8 km/h
24.02.2021 13:00 12,6 C 76 % 1035,4 hPa 0,0 l/m 0,0 km/h N 8,3 C 12,6 C 2,4 km/h
24.02.2021 14:00 14,9 C 66 % 1034,6 hPa 0,0 l/m 0,0 km/h N 8,6 C 14,9 C 0,0 km/h
24.02.2021 15:00 15,6 C 61 % 1034,3 hPa 0,0 l/m 0,0 km/h N 8,1 C 15,6 C 0,0 km/h
24.02.2021 16:00 14,9 C 61 % 1034,0 hPa 0,0 l/m 0,0 km/h N 7,5 C 14,9 C 0,0 km/h
24.02.2021 17:00 12,8 C 67 % 1033,9 hPa 0,0 l/m 0,0 km/h N 6,7 C 12,8 C 0,0 km/h
24.02.2021 18:00 9,6 C 72 % 1033,9 hPa 0,0 l/m 0,0 km/h N 4,7 C 9,6 C 0,0 km/h
24.02.2021 19:00 7,3 C 76 % 1033,9 hPa 0,0 l/m 0,0 km/h N 3,3 C 7,3 C 0,0 km/h
24.02.2021 20:00 5,5 C 79 % 1033,6 hPa 0,0 l/m 0,0 km/h N 2,2 C 5,5 C 0,0 km/h
24.02.2021 21:00 4,3 C 81 % 1033,4 hPa 0,0 l/m 0,0 km/h N 1,3 C 4,3 C 0,0 km/h
24.02.2021 22:00 3,7 C 82 % 1033,4 hPa 0,0 l/m 0,0 km/h N 0,8 C 3,7 C 0,0 km/h
24.02.2021 23:00 3,2 C 82 % 1033,2 hPa 0,0 l/m 0,0 km/h N 0,5 C 3,2 C 0,0 km/h
25.02.2021 00:00 2,7 C 82 % 1032,6 hPa 0,0 l/m 0,0 km/h N -0,1 C 2,7 C 0,0 km/h
25.02.2021 01:00 2,2 C 82 % 1032,4 hPa 0,0 l/m 0,0 km/h N -0,5 C 2,2 C 0,0 km/h
25.02.2021 02:00 1,6 C 82 % 1031,9 hPa 0,0 l/m 0,0 km/h N -1,2 C 1,6 C 0,0 km/h
25.02.2021 03:00 1,1 C 82 % 1031,4 hPa 0,0 l/m 0,0 km/h N -1,6 C 1,1 C 0,0 km/h
25.02.2021 04:00 0,9 C 82 % 1031,4 hPa 0,0 l/m 0,0 km/h N -1,8 C 0,9 C 0,0 km/h
25.02.2021 05:00 0,8 C 82 % 1031,6 hPa 0,0 l/m 0,0 km/h N -2,0 C 0,8 C 0,0 km/h
25.02.2021 06:00 1,4 C 82 % 1031,8 hPa 0,0 l/m 0,0 km/h N -1,4 C 1,4 C 0,0 km/h
25.02.2021 07:00 0,8 C 82 % 1032,2 hPa 0,0 l/m 0,0 km/h N -1,9 C 0,8 C 0,0 km/h
25.02.2021 08:00 2,3 C 83 % 1032,4 hPa 0,0 l/m 0,0 km/h N -0,4 C 2,3 C 0,0 km/h
25.02.2021 09:00 5,3 C 83 % 1032,2 hPa 0,0 l/m 0,0 km/h N 2,7 C 5,3 C 0,4 km/h
25.02.2021 10:00 7,3 C 83 % 1032,0 hPa 0,0 l/m 0,1 km/h N 4,6 C 7,3 C 2,8 km/h
25.02.2021 11:00 9,6 C 83 % 1031,7 hPa 0,0 l/m 0,1 km/h N 6,9 C 9,6 C 2,4 km/h
25.02.2021 12:00 11,4 C 81 % 1031,2 hPa 0,0 l/m 0,9 km/h N 8,2 C 11,4 C 8,4 km/h
25.02.2021 13:00 13,4 C 71 % 1030,4 hPa 0,0 l/m 0,4 km/h N 8,3 C 13,4 C 6,0 km/h
25.02.2021 14:00 14,9 C 65 % 1029,9 hPa 0,0 l/m 0,3 km/h N 8,3 C 14,9 C 5,6 km/h
25.02.2021 15:00 15,9 C 60 % 1029,3 hPa 0,0 l/m 0,1 km/h N 8,1 C 15,9 C 2,8 km/h
25.02.2021 16:00 15,6 C 61 % 1028,9 hPa 0,0 l/m 0,0 km/h N 8,0 C 15,6 C 0,8 km/h
25.02.2021 17:00 14,0 C 64 % 1028,9 hPa 0,0 l/m 0,0 km/h N 7,2 C 14,0 C 0,0 km/h
25.02.2021 18:00 10,9 C 70 % 1029,2 hPa 0,0 l/m 0,0 km/h N 5,7 C 10,9 C 0,0 km/h
25.02.2021 19:00 8,6 C 77 % 1029,4 hPa 0,0 l/m 0,0 km/h N 4,8 C 8,6 C 0,0 km/h
25.02.2021 20:00 7,3 C 80 % 1029,3 hPa 0,0 l/m 0,0 km/h N 3,9 C 7,3 C 0,0 km/h
25.02.2021 21:00 6,0 C 81 % 1029,6 hPa 0,0 l/m 0,0 km/h N 2,9 C 6,0 C 0,0 km/h
25.02.2021 22:00 5,4 C 81 % 1029,5 hPa 0,0 l/m 0,0 km/h N 2,4 C 5,4 C 0,0 km/h
25.02.2021 23:00 4,6 C 82 % 1029,3 hPa 0,0 l/m 0,0 km/h N 1,7 C 4,6 C 0,4 km/h
26.02.2021 00:00 3,8 C 82 % 1028,9 hPa 0,0 l/m 0,0 km/h N 1,0 C 3,8 C 0,0 km/h
26.02.2021 01:00 3,1 C 82 % 1028,6 hPa 0,0 l/m 0,0 km/h N 0,4 C 3,1 C 0,4 km/h
26.02.2021 02:00 2,8 C 82 % 1028,3 hPa 0,0 l/m 0,0 km/h N -0,0 C 2,8 C 0,4 km/h
26.02.2021 03:00 2,8 C 82 % 1027,9 hPa 0,0 l/m 0,0 km/h N -0,0 C 2,8 C 1,2 km/h
26.02.2021 04:00 1,6 C 82 % 1027,9 hPa 0,0 l/m 0,0 km/h N -1,1 C 1,6 C 0,0 km/h
26.02.2021 05:00 0,7 C 82 % 1028,3 hPa 0,0 l/m 0,0 km/h N -2,0 C 0,7 C 0,0 km/h
26.02.2021 06:00 0,1 C 82 % 1028,3 hPa 0,0 l/m 0,0 km/h N -2,6 C 0,1 C 0,0 km/h
26.02.2021 07:00 -0,1 C 82 % 1028,7 hPa 0,0 l/m 0,0 km/h N -2,8 C -0,1 C 0,0 km/h
26.02.2021 08:00 1,9 C 82 % 1028,8 hPa 0,0 l/m 0,0 km/h N -0,8 C 1,9 C 0,0 km/h
26.02.2021 09:00 5,8 C 83 % 1028,5 hPa 0,0 l/m 0,0 km/h N 3,1 C 5,8 C 0,0 km/h
26.02.2021 10:00 8,8 C 83 % 1027,9 hPa 0,0 l/m 0,0 km/h N 6,0 C 8,8 C 0,8 km/h
26.02.2021 11:00 11,9 C 81 % 1027,3 hPa 0,0 l/m 0,0 km/h N 8,7 C 11,9 C 1,2 km/h
26.02.2021 12:00 15,5 C 66 % 1026,3 hPa 0,0 l/m 0,6 km/h N 8,9 C 15,5 C 4,0 km/h
26.02.2021 13:00 19,8 C 36 % 1025,4 hPa 0,0 l/m 7,0 km/h N 4,4 C 19,5 C 20,9 km/h
26.02.2021 14:00 19,7 C 33 % 1024,9 hPa 0,0 l/m 7,1 km/h N 3,1 C 19,3 C 24,5 km/h
26.02.2021 15:00 19,2 C 32 % 1024,5 hPa 0,0 l/m 5,1 km/h N 2,1 C 19,2 C 18,1 km/h
26.02.2021 16:00 18,5 C 33 % 1024,0 hPa 0,0 l/m 2,9 km/h N 1,7 C 18,5 C 19,7 km/h
26.02.2021 17:00 17,1 C 37 % 1024,2 hPa 0,0 l/m 3,6 km/h N 2,4 C 17,1 C 16,5 km/h
26.02.2021 18:00 15,5 C 42 % 1024,5 hPa 0,0 l/m 1,4 km/h N 2,7 C 15,5 C 8,9 km/h
26.02.2021 19:00 14,5 C 47 % 1024,7 hPa 0,0 l/m 2,3 km/h N 3,4 C 14,5 C 10,9 km/h
26.02.2021 20:00 14,8 C 48 % 1024,4 hPa 0,0 l/m 4,1 km/h N 3,7 C 14,8 C 13,7 km/h
26.02.2021 21:00 14,6 C 48 % 1024,8 hPa 0,0 l/m 3,8 km/h N 3,8 C 14,6 C 14,1 km/h
26.02.2021 22:00 13,0 C 59 % 1025,9 hPa 0,0 l/m 5,2 km/h N 5,2 C 12,6 C 16,1 km/h
26.02.2021 23:00 10,4 C 76 % 1026,8 hPa 0,0 l/m 4,7 km/h N 6,3 C 10,3 C 22,1 km/h
27.02.2021 00:00 8,1 C 78 % 1028,1 hPa 0,0 l/m 5,7 km/h N 4,5 C 8,0 C 25,4 km/h
27.02.2021 01:00 6,5 C 80 % 1028,7 hPa 0,3 l/m 6,3 km/h N 3,2 C 6,1 C 24,1 km/h
27.02.2021 02:00 5,1 C 81 % 1029,5 hPa 1,3 l/m 4,3 km/h N 2,1 C 5,1 C 20,1 km/h
27.02.2021 03:00 3,9 C 81 % 1029,9 hPa 0,3 l/m 2,8 km/h N 0,9 C 3,9 C 16,1 km/h
27.02.2021 04:00 4,0 C 82 % 1030,3 hPa 0,0 l/m 2,9 km/h N 1,1 C 4,0 C 16,5 km/h
27.02.2021 05:00 4,3 C 82 % 1030,8 hPa 0,0 l/m 3,7 km/h N 1,5 C 4,3 C 21,3 km/h
27.02.2021 06:00 4,3 C 81 % 1031,4 hPa 0,0 l/m 4,0 km/h N 1,3 C 4,3 C 17,3 km/h
27.02.2021 07:00 4,6 C 81 % 1032,2 hPa 0,3 l/m 4,1 km/h N 1,6 C 4,6 C 18,1 km/h
27.02.2021 08:00 5,2 C 79 % 1032,9 hPa 0,0 l/m 3,9 km/h N 1,9 C 5,2 C 19,3 km/h
27.02.2021 09:00 5,6 C 78 % 1033,6 hPa 0,0 l/m 4,0 km/h N 2,1 C 5,6 C 18,5 km/h
27.02.2021 10:00 6,5 C 75 % 1033,7 hPa 0,0 l/m 5,0 km/h N 2,3 C 6,5 C 22,9 km/h
27.02.2021 11:00 6,6 C 71 % 1034,5 hPa 0,0 l/m 5,1 km/h N 1,7 C 6,6 C 19,3 km/h
27.02.2021 12:00 6,7 C 70 % 1034,6 hPa 0,0 l/m 4,3 km/h N 1,7 C 6,7 C 21,3 km/h
27.02.2021 13:00 7,4 C 67 % 1034,6 hPa 0,0 l/m 4,9 km/h N 1,6 C 7,4 C 19,3 km/h
27.02.2021 14:00 7,4 C 66 % 1034,6 hPa 0,0 l/m 5,6 km/h N 1,5 C 7,4 C 21,7 km/h
27.02.2021 15:00 7,3 C 68 % 1034,8 hPa 0,0 l/m 3,8 km/h N 1,6 C 7,3 C 22,1 km/h
27.02.2021 16:00 6,8 C 67 % 1034,8 hPa 0,0 l/m 4,1 km/h N 1,1 C 6,8 C 18,9 km/h
27.02.2021 17:00 6,2 C 70 % 1035,3 hPa 0,0 l/m 2,9 km/h N 1,2 C 6,2 C 17,7 km/h
27.02.2021 18:00 5,6 C 73 % 1036,1 hPa 0,0 l/m 3,9 km/h N 1,1 C 5,6 C 16,5 km/h
27.02.2021 19:00 5,2 C 73 % 1036,4 hPa 0,0 l/m 3,7 km/h N 0,6 C 5,2 C 14,9 km/h
27.02.2021 20:00 4,6 C 73 % 1036,7 hPa 0,0 l/m 3,5 km/h N 0,1 C 4,6 C 14,5 km/h
27.02.2021 21:00 4,4 C 72 % 1036,9 hPa 0,0 l/m 5,0 km/h N -0,2 C 4,3 C 14,1 km/h
27.02.2021 22:00 3,9 C 72 % 1037,1 hPa 0,0 l/m 3,0 km/h N -0,6 C 3,9 C 11,7 km/h
27.02.2021 23:00 3,7 C 74 % 1037,4 hPa 0,0 l/m 5,2 km/h N -0,5 C 3,7 C 15,3 km/h
28.02.2021 00:00 3,7 C 74 % 1037,3 hPa 0,0 l/m 2,9 km/h N -0,5 C 3,7 C 11,7 km/h
28.02.2021 01:00 3,4 C 75 % 1037,4 hPa 0,0 l/m 2,8 km/h N -0,6 C 3,4 C 11,3 km/h
28.02.2021 02:00 3,3 C 75 % 1037,3 hPa 0,0 l/m 3,3 km/h N -0,7 C 3,3 C 12,1 km/h
28.02.2021 03:00 3,3 C 76 % 1037,0 hPa 0,0 l/m 1,9 km/h N -0,7 C 3,3 C 10,9 km/h
28.02.2021 04:00 3,0 C 75 % 1036,8 hPa 0,0 l/m 0,9 km/h N -1,0 C 3,0 C 7,3 km/h
28.02.2021 05:00 2,4 C 77 % 1037,1 hPa 0,0 l/m 0,2 km/h N -1,3 C 2,4 C 5,2 km/h
28.02.2021 06:00 1,9 C 78 % 1037,0 hPa 0,0 l/m 0,1 km/h N -1,6 C 1,9 C 2,4 km/h
28.02.2021 07:00 2,1 C 79 % 1036,9 hPa 0,0 l/m 0,1 km/h N -1,1 C 2,1 C 2,0 km/h
28.02.2021 08:00 3,2 C 78 % 1036,9 hPa 0,0 l/m 0,6 km/h N -0,3 C 3,2 C 5,6 km/h
28.02.2021 09:00 4,8 C 71 % 1036,6 hPa 0,0 l/m 2,3 km/h N -0,1 C 4,8 C 10,1 km/h
28.02.2021 10:00 6,3 C 66 % 1036,5 hPa 0,0 l/m 0,9 km/h N 0,3 C 6,3 C 5,6 km/h
28.02.2021 11:00 7,6 C 60 % 1036,4 hPa 0,0 l/m 0,9 km/h N 0,3 C 7,6 C 5,6 km/h
28.02.2021 12:00 7,8 C 61 % 1035,8 hPa 0,0 l/m 1,0 km/h N 0,7 C 7,8 C 10,1 km/h
28.02.2021 13:00 8,5 C 57 % 1034,9 hPa 0,0 l/m 1,3 km/h N 0,5 C 8,5 C 9,3 km/h
28.02.2021 14:00 8,9 C 55 % 1034,0 hPa 0,0 l/m 1,1 km/h N 0,3 C 8,9 C 8,4 km/h
28.02.2021 15:00 7,9 C 58 % 1033,9 hPa 0,0 l/m 3,0 km/h N 0,1 C 7,9 C 12,5 km/h
28.02.2021 16:00 7,8 C 59 % 1033,8 hPa 0,0 l/m 1,2 km/h N 0,2 C 7,8 C 6,5 km/h
28.02.2021 17:00 7,1 C 60 % 1033,5 hPa 0,0 l/m 0,1 km/h N -0,1 C 7,1 C 1,2 km/h
28.02.2021 18:00 5,1 C 63 % 1033,4 hPa 0,0 l/m 0,0 km/h N -1,3 C 5,1 C 0,0 km/h
28.02.2021 19:00 2,9 C 69 % 1033,3 hPa 0,0 l/m 0,0 km/h N -2,1 C 2,9 C 0,0 km/h
28.02.2021 20:00 1,5 C 74 % 1033,6 hPa 0,0 l/m 0,0 km/h N -2,7 C 1,5 C 0,0 km/h
28.02.2021 21:00 0,3 C 78 % 1033,4 hPa 0,0 l/m 0,0 km/h N -3,1 C 0,3 C 0,0 km/h
28.02.2021 22:00 0,5 C 81 % 1033,2 hPa 0,0 l/m 0,0 km/h N -2,4 C 0,5 C 0,0 km/h
28.02.2021 23:00 0,3 C 81 % 1032,9 hPa 0,0 l/m 0,0 km/h N -2,6 C 0,3 C 0,4 km/h
Min-Datum _ 23.02.21 26.02.21 22.02.21 - 22.02.21 - 23.02.21 23.02.21 22.02.21
_ Min-Zeit 02:30 15:45 00:45 - 01:15 - 02:30 02:30 01:15
Minimum _ -1,6 C 31 % 1022,8 hPa - 0,0 km/h - -4,3 C -1,6 C 0,0 km/h
Max-Datum _ 26.02.21 23.02.21 24.02.21 27.02.21 26.02.21 - 26.02.21 26.02.21 27.02.21
_ Max-Zeit 13:45 10:15 08:00 02:45 14:30 - 12:15 13:45 15:00
Maximum _ 20,2 C 84 % 1037,6 hPa 1,3 l/m 9,1 km/h
N
- 10,1 C 20,2 C 30,6 km/h
N
Durchschnitt _ 5,8 C 75 % 1031,8 hPa #2,6 l/m 1,1 km/h N 1,5 C 5,7 C 5,1 km/h